Time;durP1;ratioP1;P1;durP2;ratioP2;P2;SDS_P1;SDS_P2;PMS_P1;PMS_P2;Temp;Humidity;BMP_temperature;BMP_pressure;BME280_temperature;BME280_humidity;BME280_pressure;Samples;Min_cycle;Max_cycle;Signal;HPM_P1;HPM_P2
2022/11/20 00:02:23;;;;;;;12.50;9.40;;;;;;;;;;5069506;28;20445;-44
2022/11/20 00:04:49;;;;;;;10.57;9.10;;;;;;;;;;5070779;28;20511;-44
2022/11/20 00:07:15;;;;;;;11.83;9.80;;;;;;;;;;5071086;28;20446;-44
2022/11/20 00:09:41;;;;;;;11.27;9.30;;;;;;;;;;5070693;28;20500;-44
2022/11/20 00:12:07;;;;;;;11.80;9.80;;;;;;;;;;5070083;28;20442;-44
2022/11/20 00:14:33;;;;;;;11.90;9.43;;;;;;;;;;5066977;28;20433;-45
2022/11/20 00:16:59;;;;;;;12.60;9.30;;;;;;;;;;5071123;28;20527;-44
2022/11/20 00:19:27;;;;;;;11.37;9.07;;;;;;;;;;5071334;28;20430;-44
2022/11/20 00:21:55;;;;;;;11.67;9.60;;;;;;;;;;5071126;28;20445;-45
2022/11/20 00:24:21;;;;;;;11.87;8.97;;;;;;;;;;5071471;28;20434;-45
2022/11/20 00:26:47;;;;;;;12.23;9.53;;;;;;;;;;5073343;28;20426;-45
2022/11/20 00:29:13;;;;;;;13.03;9.30;;;;;;;;;;5075316;28;20509;-44
2022/11/20 00:31:39;;;;;;;11.43;8.17;;;;;;;;;;5075268;28;20923;-45
2022/11/20 00:34:05;;;;;;;11.50;9.17;;;;;;;;;;5075187;28;20434;-45
2022/11/20 00:36:33;;;;;;;12.87;9.33;;;;;;;;;;5075068;28;20512;-45
2022/11/20 00:39:00;;;;;;;13.50;9.33;;;;;;;;;;5074905;28;21131;-45
2022/11/20 00:41:27;;;;;;;11.43;9.77;;;;;;;;;;5074820;28;20461;-45
2022/11/20 00:43:54;;;;;;;10.27;8.50;;;;;;;;;;5075162;28;20444;-46
2022/11/20 00:46:21;;;;;;;12.33;9.40;;;;;;;;;;5074816;28;20935;-46
2022/11/20 00:48:47;;;;;;;10.63;8.93;;;;;;;;;;5074860;28;20477;-46
2022/11/20 00:51:14;;;;;;;13.07;9.83;;;;;;;;;;5075067;28;20434;-45
2022/11/20 00:53:41;;;;;;;11.23;9.53;;;;;;;;;;5074714;28;20445;-45
2022/11/20 00:56:10;;;;;;;12.90;9.97;;;;;;;;;;5074607;28;20484;-46
2022/11/20 00:58:37;;;;;;;12.47;9.60;;;;;;;;;;5074701;28;20438;-46
2022/11/20 01:01:04;;;;;;;12.23;9.47;;;;;;;;;;5074468;28;20433;-45
2022/11/20 01:03:31;;;;;;;10.97;9.40;;;;;;;;;;5073665;28;20851;-45
2022/11/20 01:06:00;;;;;;;10.70;9.07;;;;;;;;;;5074563;28;20441;-46
2022/11/20 01:08:26;;;;;;;12.33;9.57;;;;;;;;;;5074337;28;20457;-46
2022/11/20 01:10:53;;;;;;;12.03;10.43;;;;;;;;;;5074460;28;20438;-45
2022/11/20 01:13:37;;;;;;;11.33;9.40;;;;;;;;;;5073601;28;20838;-46
2022/11/20 01:16:04;;;;;;;11.67;9.33;;;;;;;;;;5074447;28;20464;-46
2022/11/20 01:18:30;;;;;;;13.30;9.67;;;;;;;;;;5074431;28;20433;-45
2022/11/20 01:20:56;;;;;;;12.17;9.73;;;;;;;;;;5074413;28;20448;-46
2022/11/20 01:23:22;;;;;;;11.97;9.43;;;;;;;;;;5074340;28;20425;-45
2022/11/20 01:25:48;;;;;;;12.47;9.77;;;;;;;;;;5074226;28;20438;-45
2022/11/20 01:28:15;;;;;;;10.30;8.97;;;;;;;;;;5074073;28;20517;-45
2022/11/20 01:30:41;;;;;;;12.43;9.67;;;;;;;;;;5074417;28;20442;-45
2022/11/20 01:33:07;;;;;;;11.17;8.93;;;;;;;;;;5073826;28;20495;-45
2022/11/20 01:35:33;;;;;;;12.23;9.53;;;;;;;;;;5074051;28;20437;-45
2022/11/20 01:37:59;;;;;;;15.40;9.53;;;;;;;;;;5071957;28;21001;-45
2022/11/20 01:40:25;;;;;;;12.10;9.87;;;;;;;;;;5073995;28;20436;-45
2022/11/20 01:43:29;;;;;;;10.67;9.57;;;;;;;;;;5074125;28;20433;-45
2022/11/20 01:46:06;;;;;;;11.93;9.77;;;;;;;;;;5071762;28;20454;-45
2022/11/20 01:48:39;;;;;;;11.83;9.70;;;;;;;;;;5073570;28;20470;-45
2022/11/20 01:51:07;;;;;;;11.67;9.40;;;;;;;;;;5073879;28;20782;-45
2022/11/20 01:53:36;;;;;;;11.63;8.60;;;;;;;;;;5073803;28;20434;-51
2022/11/20 01:56:03;;;;;;;11.07;8.43;;;;;;;;;;5073769;28;20473;-46
2022/11/20 01:58:30;;;;;;;10.37;9.27;;;;;;;;;;5073425;28;20445;-45
2022/11/20 02:00:56;;;;;;;12.77;9.70;;;;;;;;;;5073487;28;20477;-45
2022/11/20 02:03:22;;;;;;;12.33;10.40;;;;;;;;;;5073474;28;20432;-45
2022/11/20 02:05:52;;;;;;;12.40;9.83;;;;;;;;;;5073579;28;20509;-45
2022/11/20 02:08:18;;;;;;;12.90;9.67;;;;;;;;;;5073495;28;20446;-46
2022/11/20 02:10:44;;;;;;;10.17;9.07;;;;;;;;;;5073320;28;20441;-46
2022/11/20 02:15:55;;;;;;;12.40;10.77;;;;;;;;;;5073411;28;20421;-45
2022/11/20 02:18:22;;;;;;;12.27;9.97;;;;;;;;;;5073332;28;20517;-45
2022/11/20 02:20:49;;;;;;;15.63;11.53;;;;;;;;;;5073464;28;20445;-45
2022/11/20 02:23:18;;;;;;;14.20;11.10;;;;;;;;;;5073183;28;20438;-45
2022/11/20 02:25:46;;;;;;;13.77;11.27;;;;;;;;;;5073343;28;20460;-45
2022/11/20 02:28:12;;;;;;;12.20;9.90;;;;;;;;;;5073240;28;20507;-46
2022/11/20 02:30:38;;;;;;;12.23;10.07;;;;;;;;;;5072942;28;20438;-45
2022/11/20 02:33:04;;;;;;;12.27;10.33;;;;;;;;;;5071756;28;20805;-45
2022/11/20 02:35:41;;;;;;;13.33;10.30;;;;;;;;;;5072913;28;20442;-46
2022/11/20 02:38:07;;;;;;;12.87;9.83;;;;;;;;;;5072844;28;20485;-45
2022/11/20 02:40:34;;;;;;;10.60;8.77;;;;;;;;;;5072993;28;20442;-45
2022/11/20 02:43:01;;;;;;;10.80;8.90;;;;;;;;;;5072841;28;20852;-45
2022/11/20 02:45:27;;;;;;;12.63;10.53;;;;;;;;;;5072892;28;20485;-46
2022/11/20 02:47:53;;;;;;;12.70;10.43;;;;;;;;;;5072897;28;20430;-45
2022/11/20 02:50:19;;;;;;;12.33;10.10;;;;;;;;;;5072314;28;20536;-57
2022/11/20 02:52:46;;;;;;;12.57;10.50;;;;;;;;;;5072691;28;20438;-45
2022/11/20 02:55:12;;;;;;;10.83;9.57;;;;;;;;;;5071428;28;20822;-45
2022/11/20 02:57:38;;;;;;;11.93;9.77;;;;;;;;;;5072615;28;20895;-45
2022/11/20 03:00:06;;;;;;;10.33;9.07;;;;;;;;;;5072553;28;20806;-44
2022/11/20 03:02:33;;;;;;;11.37;9.50;;;;;;;;;;5072528;28;20438;-45
2022/11/20 03:04:59;;;;;;;12.47;10.03;;;;;;;;;;5072676;28;20430;-44
2022/11/20 03:07:25;;;;;;;11.07;9.30;;;;;;;;;;5072220;28;20495;-45
2022/11/20 03:09:51;;;;;;;10.23;9.10;;;;;;;;;;5072323;28;20463;-45
2022/11/20 03:12:17;;;;;;;11.50;9.57;;;;;;;;;;5072390;28;20504;-45
2022/11/20 03:14:43;;;;;;;10.43;9.07;;;;;;;;;;5072268;28;20433;-45
2022/11/20 03:17:11;;;;;;;12.27;9.37;;;;;;;;;;5072068;28;21045;-44
2022/11/20 03:19:37;;;;;;;11.60;9.60;;;;;;;;;;5072355;28;20441;-44
2022/11/20 03:22:03;;;;;;;11.37;9.23;;;;;;;;;;5072217;28;20430;-45
2022/11/20 03:24:29;;;;;;;12.97;9.60;;;;;;;;;;5072306;28;20430;-45
2022/11/20 03:26:55;;;;;;;13.70;10.33;;;;;;;;;;5072323;28;20438;-45
2022/11/20 03:29:21;;;;;;;12.57;10.20;;;;;;;;;;5072089;28;20434;-44
2022/11/20 03:31:47;;;;;;;12.40;10.13;;;;;;;;;;5072095;28;20503;-45
2022/11/20 03:34:14;;;;;;;11.57;9.87;;;;;;;;;;5071876;28;20931;-44
2022/11/20 03:36:41;;;;;;;13.03;10.27;;;;;;;;;;5071778;28;20527;-45
2022/11/20 03:39:07;;;;;;;12.03;9.80;;;;;;;;;;5071937;28;20807;-44
2022/11/20 03:41:36;;;;;;;11.17;9.27;;;;;;;;;;5071952;28;20465;-45
2022/11/20 03:44:03;;;;;;;11.73;9.53;;;;;;;;;;5071783;28;20469;-45
2022/11/20 03:46:30;;;;;;;11.70;9.90;;;;;;;;;;5071713;28;20989;-45
2022/11/20 03:48:56;;;;;;;12.57;9.77;;;;;;;;;;5071695;28;20497;-46
2022/11/20 03:51:24;;;;;;;12.70;9.63;;;;;;;;;;5071606;28;20434;-44
2022/11/20 03:53:51;;;;;;;11.60;10.40;;;;;;;;;;5071883;28;20453;-44
2022/11/20 03:56:19;;;;;;;12.67;10.10;;;;;;;;;;5071231;28;20491;-44
2022/11/20 03:58:45;;;;;;;11.87;9.87;;;;;;;;;;5071548;28;20463;-44
2022/11/20 04:01:12;;;;;;;13.23;10.63;;;;;;;;;;5070690;28;20445;-45
2022/11/20 04:03:39;;;;;;;12.23;10.17;;;;;;;;;;5070834;28;20432;-45
2022/11/20 04:06:05;;;;;;;12.10;10.80;;;;;;;;;;5071183;28;20426;-45
2022/11/20 04:08:33;;;;;;;14.83;10.50;;;;;;;;;;5071290;28;20457;-44
2022/11/20 04:11:08;;;;;;;12.80;10.77;;;;;;;;;;5071286;28;20445;-45
2022/11/20 04:13:34;;;;;;;12.70;10.73;;;;;;;;;;5071513;28;20441;-44
2022/11/20 04:16:00;;;;;;;14.33;10.87;;;;;;;;;;5071385;28;20440;-44
2022/11/20 04:18:26;;;;;;;13.27;10.50;;;;;;;;;;5071447;28;20495;-44
2022/11/20 04:20:52;;;;;;;13.10;10.53;;;;;;;;;;5070977;28;20442;-44
2022/11/20 04:23:18;;;;;;;13.10;10.70;;;;;;;;;;5071106;28;20438;-44
2022/11/20 04:25:46;;;;;;;13.17;11.03;;;;;;;;;;5071300;28;20438;-44
2022/11/20 04:28:12;;;;;;;13.23;11.07;;;;;;;;;;5071236;28;20458;-45
2022/11/20 04:30:38;;;;;;;12.87;10.10;;;;;;;;;;5071342;28;21066;-45
2022/11/20 04:33:04;;;;;;;13.43;11.37;;;;;;;;;;5071030;28;20944;-44
2022/11/20 04:35:30;;;;;;;13.13;10.97;;;;;;;;;;5071150;28;20441;-44
2022/11/20 04:37:56;;;;;;;11.57;10.27;;;;;;;;;;5070911;28;20489;-45
2022/11/20 04:40:22;;;;;;;13.53;11.00;;;;;;;;;;5071185;28;20430;-45
2022/11/20 04:42:49;;;;;;;14.73;11.47;;;;;;;;;;5071247;28;20436;-44
2022/11/20 04:45:15;;;;;;;13.20;11.00;;;;;;;;;;5071061;28;20462;-45
2022/11/20 04:47:41;;;;;;;15.60;11.50;;;;;;;;;;5071157;28;20475;-45
2022/11/20 04:50:07;;;;;;;13.47;10.93;;;;;;;;;;5071009;28;20477;-44
2022/11/20 04:52:33;;;;;;;14.23;11.23;;;;;;;;;;5071159;28;20481;-44
2022/11/20 04:54:59;;;;;;;13.57;11.03;;;;;;;;;;5071164;28;20465;-44
2022/11/20 04:57:25;;;;;;;12.90;10.53;;;;;;;;;;5070795;28;20504;-44
2022/11/20 04:59:53;;;;;;;13.57;11.17;;;;;;;;;;5071003;28;20960;-44
2022/11/20 05:02:19;;;;;;;12.83;10.07;;;;;;;;;;5070903;28;20964;-45
2022/11/20 05:04:45;;;;;;;13.30;10.70;;;;;;;;;;5070917;28;20449;-45
2022/11/20 05:07:11;;;;;;;13.20;10.60;;;;;;;;;;5070906;28;20483;-45
2022/11/20 05:09:37;;;;;;;12.57;10.80;;;;;;;;;;5070635;28;20892;-46
2022/11/20 05:12:03;;;;;;;11.93;9.93;;;;;;;;;;5071580;28;20947;-45
2022/11/20 05:14:29;;;;;;;12.53;10.80;;;;;;;;;;5074262;28;20481;-45
2022/11/20 05:16:57;;;;;;;13.70;10.27;;;;;;;;;;5074481;28;20519;-45
2022/11/20 05:19:23;;;;;;;12.10;10.73;;;;;;;;;;5074552;28;20547;-44
2022/11/20 05:21:49;;;;;;;14.23;10.43;;;;;;;;;;5074234;28;20469;-44
2022/11/20 05:24:15;;;;;;;11.07;9.67;;;;;;;;;;5074498;28;20764;-45
2022/11/20 05:26:41;;;;;;;12.03;10.03;;;;;;;;;;5074537;28;20445;-45
2022/11/20 05:29:07;;;;;;;12.13;10.17;;;;;;;;;;5074265;28;20442;-45
2022/11/20 05:31:33;;;;;;;13.23;9.70;;;;;;;;;;5074460;28;20438;-45
2022/11/20 05:34:00;;;;;;;11.83;9.87;;;;;;;;;;5074242;28;20469;-45
2022/11/20 05:36:26;;;;;;;12.07;10.03;;;;;;;;;;5074225;28;20496;-45
2022/11/20 05:38:52;;;;;;;10.03;8.90;;;;;;;;;;5074678;28;20430;-45
2022/11/20 05:41:20;;;;;;;14.70;10.27;;;;;;;;;;5074423;28;20438;-45
2022/11/20 05:43:46;;;;;;;10.03;8.70;;;;;;;;;;5074486;28;20808;-45
2022/11/20 05:46:13;;;;;;;11.43;9.67;;;;;;;;;;5074215;28;20453;-45
2022/11/20 05:48:40;;;;;;;10.93;9.17;;;;;;;;;;5073967;28;20839;-45
2022/11/20 05:51:08;;;;;;;10.13;8.67;;;;;;;;;;5073287;28;20812;-45
2022/11/20 05:53:35;;;;;;;11.20;10.07;;;;;;;;;;5073661;28;20430;-45
2022/11/20 05:56:02;;;;;;;13.03;10.00;;;;;;;;;;5073853;28;21114;-46
2022/11/20 05:58:28;;;;;;;12.53;10.03;;;;;;;;;;5073430;28;20481;-46
2022/11/20 06:00:54;;;;;;;12.83;10.00;;;;;;;;;;5071966;28;20438;-46
2022/11/20 06:03:20;;;;;;;11.67;9.43;;;;;;;;;;5073785;28;20454;-46
2022/11/20 06:05:47;;;;;;;11.70;9.93;;;;;;;;;;5073369;28;20487;-46
2022/11/20 06:08:14;;;;;;;13.47;9.80;;;;;;;;;;5073264;28;20460;-46
2022/11/20 06:10:40;;;;;;;11.20;9.80;;;;;;;;;;5072551;28;20479;-46
2022/11/20 06:13:06;;;;;;;13.57;10.83;;;;;;;;;;5073464;28;20789;-46
2022/11/20 06:15:32;;;;;;;11.33;10.03;;;;;;;;;;5073389;28;20963;-46
2022/11/20 06:17:58;;;;;;;12.10;9.60;;;;;;;;;;5073592;28;20485;-46
2022/11/20 06:20:24;;;;;;;13.17;9.93;;;;;;;;;;5073078;28;20433;-46
2022/11/20 06:22:50;;;;;;;11.80;9.90;;;;;;;;;;5073218;28;20430;-46
2022/11/20 06:25:18;;;;;;;14.53;11.43;;;;;;;;;;5072571;28;20452;-46
2022/11/20 06:27:44;;;;;;;12.30;10.33;;;;;;;;;;5073249;28;20438;-46
2022/11/20 06:30:10;;;;;;;10.97;9.73;;;;;;;;;;5073261;28;20445;-46
2022/11/20 06:32:36;;;;;;;12.80;10.20;;;;;;;;;;5073278;28;20464;-46
2022/11/20 06:35:02;;;;;;;13.20;10.73;;;;;;;;;;5073134;28;20430;-46
2022/11/20 06:37:28;;;;;;;13.17;10.30;;;;;;;;;;5072689;28;20482;-46
2022/11/20 06:39:55;;;;;;;12.03;9.90;;;;;;;;;;5072545;28;20436;-46
2022/11/20 06:42:22;;;;;;;12.60;10.00;;;;;;;;;;5072729;28;20465;-46
2022/11/20 06:44:48;;;;;;;12.83;10.30;;;;;;;;;;5072919;28;20472;-46
2022/11/20 06:47:14;;;;;;;11.17;9.97;;;;;;;;;;5072713;28;20437;-46
2022/11/20 06:49:40;;;;;;;12.20;10.43;;;;;;;;;;5072584;28;20477;-46
2022/11/20 06:52:06;;;;;;;12.50;10.07;;;;;;;;;;5072735;28;20469;-46
2022/11/20 06:54:32;;;;;;;13.00;10.50;;;;;;;;;;5072641;28;20458;-45
2022/11/20 06:56:58;;;;;;;13.53;11.07;;;;;;;;;;5072479;28;20497;-45
2022/11/20 06:59:25;;;;;;;13.30;10.63;;;;;;;;;;5070198;28;20878;-44
2022/11/20 07:01:51;;;;;;;15.90;10.87;;;;;;;;;;5072424;28;20467;-44
2022/11/20 07:04:18;;;;;;;11.73;10.53;;;;;;;;;;5072695;28;20833;-45
2022/11/20 07:06:44;;;;;;;13.13;10.80;;;;;;;;;;5072539;28;20524;-44
2022/11/20 07:09:10;;;;;;;11.67;10.33;;;;;;;;;;5071529;28;20532;-44
2022/11/20 07:11:36;;;;;;;13.43;10.83;;;;;;;;;;5071336;28;20944;-44
2022/11/20 07:14:02;;;;;;;13.27;11.03;;;;;;;;;;5071583;28;20473;-44
2022/11/20 07:16:29;;;;;;;12.17;10.47;;;;;;;;;;5071282;28;20461;-44
2022/11/20 07:18:55;;;;;;;13.30;11.07;;;;;;;;;;5071134;28;20452;-44
2022/11/20 07:21:21;;;;;;;34.90;19.43;;;;;;;;;;5072294;28;20513;-44
2022/11/20 07:23:47;;;;;;;21.03;14.10;;;;;;;;;;5072432;28;20425;-44
2022/11/20 07:26:13;;;;;;;12.37;10.97;;;;;;;;;;5070938;28;20426;-44
2022/11/20 07:28:39;;;;;;;12.63;10.33;;;;;;;;;;5072801;28;20429;-43
2022/11/20 07:31:07;;;;;;;12.03;10.37;;;;;;;;;;5072488;28;20465;-42
2022/11/20 07:33:34;;;;;;;13.07;10.20;;;;;;;;;;5072487;28;20434;-44
2022/11/20 07:36:00;;;;;;;11.20;10.00;;;;;;;;;;5072431;28;20493;-44
2022/11/20 07:38:26;;;;;;;13.07;10.37;;;;;;;;;;5072188;28;20568;-44
2022/11/20 07:40:55;;;;;;;14.13;10.27;;;;;;;;;;5072510;28;20511;-43
2022/11/20 07:43:21;;;;;;;11.40;9.73;;;;;;;;;;5072308;28;20468;-44
2022/11/20 07:45:47;;;;;;;11.53;9.40;;;;;;;;;;5072372;28;20437;-43
2022/11/20 07:48:13;;;;;;;10.77;9.57;;;;;;;;;;5071799;28;20442;-44
2022/11/20 07:50:41;;;;;;;12.03;9.77;;;;;;;;;;5072007;28;20437;-43
2022/11/20 07:53:07;;;;;;;13.03;10.17;;;;;;;;;;5071938;28;20496;-44
2022/11/20 07:55:33;;;;;;;11.47;9.10;;;;;;;;;;5071989;28;20428;-44
2022/11/20 07:57:59;;;;;;;11.10;9.40;;;;;;;;;;5071924;28;20509;-44
2022/11/20 08:00:26;;;;;;;11.50;9.63;;;;;;;;;;5072004;28;20446;-43
2022/11/20 08:02:52;;;;;;;10.37;9.23;;;;;;;;;;5071990;28;20437;-44
2022/11/20 08:05:18;;;;;;;11.40;8.73;;;;;;;;;;5071812;28;20460;-43
2022/11/20 08:07:45;;;;;;;10.50;9.00;;;;;;;;;;5071862;28;20433;-43
2022/11/20 08:10:12;;;;;;;13.07;9.67;;;;;;;;;;5071877;28;20519;-44
2022/11/20 08:15:28;;;;;;;10.47;8.93;;;;;;;;;;5071886;28;20799;-44
2022/11/20 08:17:59;;;;;;;12.37;9.73;;;;;;;;;;5071811;28;20539;-44
2022/11/20 08:20:25;;;;;;;11.10;9.23;;;;;;;;;;5071546;28;20448;-43
2022/11/20 08:22:52;;;;;;;12.63;10.47;;;;;;;;;;5071865;28;20529;-43
2022/11/20 08:25:18;;;;;;;11.80;10.57;;;;;;;;;;5071644;28;20537;-43
2022/11/20 08:27:45;;;;;;;10.93;9.57;;;;;;;;;;5071737;28;20462;-44
2022/11/20 08:30:11;;;;;;;12.83;10.93;;;;;;;;;;5071686;28;20442;-43
2022/11/20 08:32:37;;;;;;;13.33;10.70;;;;;;;;;;5071960;28;20524;-43
2022/11/20 08:35:03;;;;;;;11.57;10.23;;;;;;;;;;5071513;28;20797;-43
2022/11/20 08:37:30;;;;;;;12.43;10.53;;;;;;;;;;5071881;28;20866;-43
2022/11/20 08:39:57;;;;;;;11.07;9.70;;;;;;;;;;5071749;28;20491;-43
2022/11/20 08:42:23;;;;;;;11.67;10.03;;;;;;;;;;5071795;28;20466;-44
2022/11/20 08:44:49;;;;;;;13.30;10.57;;;;;;;;;;5071548;28;20570;-43
2022/11/20 08:47:15;;;;;;;11.97;9.70;;;;;;;;;;5072546;28;20525;-44
2022/11/20 08:49:41;;;;;;;11.57;9.90;;;;;;;;;;5075610;28;20564;-43
2022/11/20 08:52:07;;;;;;;11.83;9.33;;;;;;;;;;5075689;28;20470;-43
2022/11/20 08:54:33;;;;;;;12.53;9.87;;;;;;;;;;5075595;28;20457;-45
2022/11/20 08:57:00;;;;;;;12.83;10.03;;;;;;;;;;5075754;28;20513;-44
2022/11/20 08:59:26;;;;;;;13.47;9.83;;;;;;;;;;5075945;28;20433;-44
2022/11/20 09:01:52;;;;;;;12.87;10.70;;;;;;;;;;5075641;28;20804;-44
2022/11/20 09:04:18;;;;;;;10.97;9.77;;;;;;;;;;5075125;28;20441;-44
2022/11/20 09:06:44;;;;;;;11.20;10.00;;;;;;;;;;5075188;28;20908;-44
2022/11/20 09:09:11;;;;;;;11.57;9.97;;;;;;;;;;5074925;28;20446;-45
2022/11/20 09:11:37;;;;;;;11.73;10.27;;;;;;;;;;5075220;28;20449;-44
2022/11/20 09:14:04;;;;;;;16.77;13.50;;;;;;;;;;5075141;28;20464;-44
2022/11/20 09:16:30;;;;;;;13.40;11.77;;;;;;;;;;5074748;28;20843;-45
2022/11/20 09:18:56;;;;;;;13.10;10.43;;;;;;;;;;5074954;28;20442;-44
2022/11/20 09:21:23;;;;;;;11.40;8.77;;;;;;;;;;5074762;28;20441;-44
2022/11/20 09:23:49;;;;;;;10.23;8.97;;;;;;;;;;5074791;28;20429;-44
2022/11/20 09:26:19;;;;;;;11.50;10.27;;;;;;;;;;5074653;28;20799;-45
2022/11/20 09:28:45;;;;;;;10.63;8.57;;;;;;;;;;5074839;28;20908;-44
2022/11/20 09:31:16;;;;;;;9.20;8.30;;;;;;;;;;5074583;28;20461;-45
2022/11/20 09:33:42;;;;;;;10.13;9.10;;;;;;;;;;5074706;28;20450;-44
2022/11/20 09:36:09;;;;;;;12.13;9.13;;;;;;;;;;5074520;28;20460;-43
2022/11/20 09:38:35;;;;;;;10.73;9.27;;;;;;;;;;5074442;28;20539;-44
2022/11/20 09:41:03;;;;;;;10.40;9.20;;;;;;;;;;5074433;28;20430;-43
2022/11/20 09:43:37;;;;;;;11.87;9.47;;;;;;;;;;5074287;28;20562;-45
2022/11/20 09:46:09;;;;;;;10.97;9.37;;;;;;;;;;5074365;28;20438;-44
2022/11/20 09:48:55;;;;;;;10.47;9.13;;;;;;;;;;5074164;28;21037;-44
2022/11/20 09:51:28;;;;;;;10.07;8.57;;;;;;;;;;5074271;28;20446;-45
2022/11/20 09:54:01;;;;;;;11.63;9.10;;;;;;;;;;5074348;28;20499;-45
2022/11/20 09:56:28;;;;;;;10.20;8.97;;;;;;;;;;5074094;28;20434;-43
2022/11/20 09:58:55;;;;;;;11.30;9.27;;;;;;;;;;5072980;28;20430;-42
2022/11/20 10:01:24;;;;;;;10.00;8.87;;;;;;;;;;5074010;28;20545;-44
2022/11/20 10:03:54;;;;;;;13.23;10.10;;;;;;;;;;5074017;28;20428;-43
2022/11/20 10:06:24;;;;;;;12.87;10.20;;;;;;;;;;5073780;28;20446;-44
2022/11/20 10:08:55;;;;;;;11.47;10.10;;;;;;;;;;5073952;28;20963;-44
2022/11/20 10:11:27;;;;;;;14.23;11.17;;;;;;;;;;5073894;28;20446;-43
2022/11/20 10:13:58;;;;;;;10.93;9.83;;;;;;;;;;5073900;28;20433;-43
2022/11/20 10:16:31;;;;;;;12.70;10.17;;;;;;;;;;5073739;28;20536;-43
2022/11/20 10:19:05;;;;;;;12.13;9.87;;;;;;;;;;5073888;28;20444;-44
2022/11/20 10:21:36;;;;;;;10.60;9.43;;;;;;;;;;5073678;28;20503;-43
2022/11/20 10:24:20;;;;;;;11.80;9.53;;;;;;;;;;5073869;28;20460;-43
2022/11/20 10:26:53;;;;;;;12.20;10.33;;;;;;;;;;5073713;28;20422;-43
2022/11/20 10:29:22;;;;;;;12.27;10.00;;;;;;;;;;5073546;28;20446;-43
2022/11/20 10:31:51;;;;;;;12.13;9.93;;;;;;;;;;5073596;28;20430;-43
2022/11/20 10:34:23;;;;;;;11.97;9.93;;;;;;;;;;5073422;28;20499;-44
2022/11/20 10:36:51;;;;;;;11.83;9.67;;;;;;;;;;5073479;28;20468;-44
2022/11/20 10:39:22;;;;;;;11.07;9.87;;;;;;;;;;5073588;28;20442;-43
2022/11/20 10:41:49;;;;;;;11.77;10.03;;;;;;;;;;5073438;28;20445;-43
2022/11/20 10:45:00;;;;;;;14.33;10.27;;;;;;;;;;5073265;28;20529;-42
2022/11/20 10:47:04;;;;;;;10.97;9.13;;;;;;;;;;5073042;28;20438;-44
2022/11/20 10:49:33;;;;;;;11.43;9.53;;;;;;;;;;5072870;28;20472;-44
2022/11/20 10:52:03;;;;;;;12.63;10.63;;;;;;;;;;5072984;28;20454;-44
2022/11/20 10:54:33;;;;;;;10.30;9.27;;;;;;;;;;5072445;28;20433;-44
2022/11/20 10:57:04;;;;;;;13.93;10.63;;;;;;;;;;5069354;28;20484;-44
2022/11/20 10:59:39;;;;;;;11.87;10.13;;;;;;;;;;5072621;28;20556;-43
2022/11/20 11:02:15;;;;;;;13.10;10.57;;;;;;;;;;5070125;28;20469;-44
2022/11/20 11:04:44;;;;;;;11.60;10.37;;;;;;;;;;5071905;28;20441;-44
2022/11/20 11:07:12;;;;;;;11.20;10.00;;;;;;;;;;5072729;28;20465;-44
2022/11/20 11:09:40;;;;;;;12.00;10.47;;;;;;;;;;5072093;28;20972;-43
2022/11/20 11:12:07;;;;;;;10.47;9.23;;;;;;;;;;5072489;28;20437;-44
2022/11/20 11:14:42;;;;;;;11.60;9.93;;;;;;;;;;5070633;28;20437;-44
2022/11/20 11:17:18;;;;;;;10.33;9.23;;;;;;;;;;5072414;28;20901;-43
2022/11/20 11:19:46;;;;;;;11.63;9.97;;;;;;;;;;5072237;28;20924;-43
2022/11/20 11:22:17;;;;;;;12.60;10.97;;;;;;;;;;5071524;28;20491;-43
2022/11/20 11:24:51;;;;;;;11.77;10.57;;;;;;;;;;5072357;28;20422;-43
2022/11/20 11:27:17;;;;;;;13.13;11.40;;;;;;;;;;5071645;28;20449;-44
2022/11/20 11:29:43;;;;;;;14.83;12.63;;;;;;;;;;5072251;28;20441;-43
2022/11/20 11:32:12;;;;;;;14.00;12.37;;;;;;;;;;5066063;28;20434;-42
2022/11/20 11:34:38;;;;;;;15.47;12.77;;;;;;;;;;5070412;28;20438;-43
2022/11/20 11:37:11;;;;;;;11.63;10.43;;;;;;;;;;5071917;28;20474;-43
2022/11/20 11:39:39;;;;;;;11.67;10.47;;;;;;;;;;5067593;28;20437;-42
2022/11/20 11:42:05;;;;;;;13.50;10.63;;;;;;;;;;5071898;28;20464;-43
2022/11/20 11:47:22;;;;;;;11.30;9.87;;;;;;;;;;5071765;28;20420;-41
2022/11/20 11:49:48;;;;;;;11.87;10.17;;;;;;;;;;5071694;28;20485;-41
2022/11/20 11:52:17;;;;;;;11.17;9.47;;;;;;;;;;5072042;28;20436;-43
2022/11/20 11:54:46;;;;;;;10.93;8.80;;;;;;;;;;5071996;28;20446;-42
2022/11/20 11:57:14;;;;;;;10.83;9.73;;;;;;;;;;5071533;28;20844;-43
2022/11/20 11:59:44;;;;;;;10.10;9.00;;;;;;;;;;5071715;28;20447;-42
2022/11/20 12:02:16;;;;;;;12.03;10.73;;;;;;;;;;5068106;28;20533;-44
2022/11/20 12:04:44;;;;;;;11.07;9.70;;;;;;;;;;5070983;28;20467;-44
2022/11/20 12:07:12;;;;;;;10.67;9.57;;;;;;;;;;5071648;28;20429;-44
2022/11/20 12:09:44;;;;;;;10.67;9.57;;;;;;;;;;5070989;28;20862;-43
2022/11/20 12:12:13;;;;;;;13.23;10.93;;;;;;;;;;5065166;28;20944;-42
2022/11/20 12:14:41;;;;;;;9.70;8.73;;;;;;;;;;5070866;28;20473;-42
2022/11/20 12:17:09;;;;;;;12.37;9.33;;;;;;;;;;5070641;28;20578;-43
2022/11/20 12:19:35;;;;;;;9.73;8.67;;;;;;;;;;5070358;28;20439;-43
2022/11/20 12:22:05;;;;;;;9.33;8.43;;;;;;;;;;5070421;28;20506;-43
2022/11/20 12:24:36;;;;;;;9.97;8.80;;;;;;;;;;5070124;28;20442;-42
2022/11/20 12:27:09;;;;;;;9.87;8.87;;;;;;;;;;5069751;28;20512;-43
2022/11/20 12:29:41;;;;;;;11.97;9.90;;;;;;;;;;5069382;28;20525;-43
2022/11/20 12:32:22;;;;;;;11.40;10.20;;;;;;;;;;5070529;28;20441;-43
2022/11/20 12:34:53;;;;;;;12.17;10.70;;;;;;;;;;5070917;28;20430;-43
2022/11/20 12:37:25;;;;;;;22.07;17.63;;;;;;;;;;5070576;28;20888;-43
2022/11/20 12:39:54;;;;;;;11.40;9.90;;;;;;;;;;5071039;28;20430;-43
2022/11/20 12:45:26;;;;;;;9.53;8.53;;;;;;;;;;5070055;28;20429;-43
2022/11/20 12:47:58;;;;;;;9.63;8.70;;;;;;;;;;5071404;28;20433;-43
2022/11/20 12:50:29;;;;;;;8.93;7.70;;;;;;;;;;5071013;28;20485;-43
2022/11/20 12:52:57;;;;;;;8.27;7.43;;;;;;;;;;5071453;28;20808;-44
2022/11/20 12:55:31;;;;;;;12.10;10.80;;;;;;;;;;5071150;28;20900;-43
2022/11/20 12:58:02;;;;;;;9.87;8.13;;;;;;;;;;5071226;28;20894;-44
2022/11/20 13:00:28;;;;;;;10.57;8.67;;;;;;;;;;5071244;28;20453;-43
2022/11/20 13:03:09;;;;;;;9.00;8.00;;;;;;;;;;5071162;28;20446;-43
2022/11/20 13:05:38;;;;;;;8.90;8.00;;;;;;;;;;5057714;28;20448;-43
2022/11/20 13:08:09;;;;;;;9.03;7.83;;;;;;;;;;5070252;28;20499;-44
2022/11/20 13:10:39;;;;;;;25.73;23.10;;;;;;;;;;5069911;28;20487;-43
2022/11/20 13:13:11;;;;;;;11.50;9.53;;;;;;;;;;5071087;28;20814;-43
2022/11/20 13:15:42;;;;;;;9.60;8.57;;;;;;;;;;5070142;28;20438;-44
2022/11/20 13:18:10;;;;;;;8.70;7.80;;;;;;;;;;5071049;28;20474;-44
2022/11/20 13:20:36;;;;;;;19.17;16.47;;;;;;;;;;5070994;28;20492;-43
2022/11/20 13:23:02;;;;;;;13.50;11.80;;;;;;;;;;5071037;28;20545;-44
2022/11/20 13:25:30;;;;;;;14.00;11.43;;;;;;;;;;5070810;28;20477;-43
2022/11/20 13:27:56;;;;;;;11.53;10.33;;;;;;;;;;5070944;28;20479;-43
2022/11/20 13:30:25;;;;;;;20.33;17.23;;;;;;;;;;5069452;28;20844;-43
2022/11/20 13:32:55;;;;;;;12.47;11.17;;;;;;;;;;5070226;28;20440;-43
2022/11/20 13:35:25;;;;;;;13.70;11.67;;;;;;;;;;5073815;28;20440;-43
2022/11/20 13:38:00;;;;;;;18.00;14.83;;;;;;;;;;5074137;28;20509;-43
2022/11/20 13:40:26;;;;;;;56.87;31.73;;;;;;;;;;5074267;28;20424;-42
2022/11/20 13:42:56;;;;;;;80.30;38.40;;;;;;;;;;5073958;28;20525;-43
2022/11/20 13:45:23;;;;;;;65.63;33.03;;;;;;;;;;5073502;28;20438;-44
2022/11/20 13:47:52;;;;;;;23.63;15.90;;;;;;;;;;5073986;28;20430;-43
2022/11/20 13:50:18;;;;;;;9.77;8.57;;;;;;;;;;5073630;28;20832;-42
2022/11/20 13:52:49;;;;;;;8.83;7.70;;;;;;;;;;5072462;28;20449;-43
2022/11/20 13:55:21;;;;;;;266.37;125.33;;;;;;;;;;5074494;28;20545;-43
2022/11/20 13:57:51;;;;;;;31.23;19.33;;;;;;;;;;5074171;28;20485;-43
2022/11/20 14:00:19;;;;;;;10.67;8.60;;;;;;;;;;5074123;28;20476;-43
2022/11/20 14:02:46;;;;;;;9.90;8.23;;;;;;;;;;5074143;28;20464;-42
2022/11/20 14:05:19;;;;;;;10.83;8.23;;;;;;;;;;5073947;28;20533;-43
2022/11/20 14:07:46;;;;;;;9.10;7.80;;;;;;;;;;5074269;28;20438;-43
2022/11/20 14:10:19;;;;;;;15.60;12.07;;;;;;;;;;5074018;28;20468;-43
2022/11/20 14:12:45;;;;;;;14.67;10.93;;;;;;;;;;5073946;28;20943;-43
2022/11/20 14:15:24;;;;;;;12.10;10.17;;;;;;;;;;5073851;28;20437;-43
2022/11/20 14:17:50;;;;;;;9.50;8.50;;;;;;;;;;5073912;28;20531;-43
2022/11/20 14:20:22;;;;;;;10.37;8.33;;;;;;;;;;5073555;28;20476;-43
2022/11/20 14:22:49;;;;;;;9.83;8.83;;;;;;;;;;5073766;28;20948;-43
2022/11/20 14:25:23;;;;;;;9.67;8.67;;;;;;;;;;5073708;28;20495;-43
2022/11/20 14:27:52;;;;;;;11.03;8.83;;;;;;;;;;5073754;28;20839;-43
2022/11/20 14:30:19;;;;;;;10.53;9.33;;;;;;;;;;5073479;28;20438;-43
2022/11/20 14:32:46;;;;;;;9.93;8.73;;;;;;;;;;5073503;28;20937;-43
2022/11/20 14:35:18;;;;;;;9.80;8.80;;;;;;;;;;5073234;28;20889;-43
2022/11/20 14:37:46;;;;;;;10.60;9.07;;;;;;;;;;5073531;28;20967;-44
2022/11/20 14:40:23;;;;;;;9.93;8.53;;;;;;;;;;5073355;28;20986;-42
2022/11/20 14:42:49;;;;;;;11.90;9.00;;;;;;;;;;5073574;28;20436;-43